Salt Lake City, Utah
Current Conditions -  °F | °C
As of 12:53 AM on Thursday 27 Nov 2014 (Local Time) from KSLC Reporting Station
Clear Clear  
Wind Chill:   Ceiling: Unl
Heat Index:   Visibility: 10mi
Dew Point: -2°   Wind: 13mph
Humidity: 55%   Direction: 130°SE
Pressure: 30.34"   Gusts: NA
Location:  40.76°N, 111.88°W
Report Text: KSLC 270753Z 13011KT 10SM CLR 07/M02 A3034 RMK AO2 SLP256 T00671017
Loading
Personal Weather Stations






























Interactive Weather Map New forecast layout! Learn more

10-Day Weather Forecast

Advertisements
Track Severe Weather on mobile